createdAt,value
2023-04-07T00:02:51.844Z,98156.59
2023-04-07T00:05:54.982Z,98155.80
2023-04-07T00:08:58.003Z,98155.02
2023-04-07T00:12:03.763Z,98150.90
2023-04-07T00:15:07.441Z,98150.30
2023-04-07T00:18:10.823Z,98143.33
2023-04-07T00:21:13.828Z,98136.16
2023-04-07T00:24:27.174Z,98134.44
2023-04-07T00:27:36.962Z,98133.77
2023-04-07T00:30:41.505Z,98129.52
2023-04-07T00:33:44.734Z,98126.65
2023-04-07T00:36:52.116Z,98127.80
2023-04-07T00:39:56.310Z,98125.64
2023-04-07T00:42:59.292Z,98120.38
2023-04-07T00:46:02.631Z,98123.27
2023-04-07T00:49:07.043Z,98118.64
2023-04-07T00:52:12.096Z,98117.02
2023-04-07T00:55:15.072Z,98119.75
2023-04-07T00:58:18.074Z,98120.98
2023-04-07T01:01:30.994Z,98117.71
2023-04-07T01:04:51.566Z,98114.30
2023-04-07T01:08:12.896Z,98108.23
2023-04-07T01:11:28.323Z,98103.67
2023-04-07T01:14:38.561Z,98099.89
2023-04-07T01:18:08.860Z,98095.16
2023-04-07T01:21:16.598Z,98094.19
2023-04-07T01:24:57.748Z,98089.89
2023-04-07T01:28:36.369Z,98092.59
2023-04-07T01:31:41.169Z,98097.52
2023-04-07T01:34:48.098Z,98095.16
2023-04-07T01:37:52.602Z,98093.15
2023-04-07T01:40:57.051Z,98091.13
2023-04-07T01:44:02.238Z,98088.96
2023-04-07T01:47:06.204Z,98087.10
2023-04-07T01:50:11.093Z,98083.82
2023-04-07T01:53:15.974Z,98076.19
2023-04-07T01:56:19.040Z,98075.95
2023-04-07T01:59:25.912Z,98075.34
2023-04-07T02:02:30.813Z,98080.63
2023-04-07T02:05:36.169Z,98078.52
2023-04-07T02:08:44.186Z,98077.67
2023-04-07T02:11:49.515Z,98078.63
2023-04-07T02:14:54.429Z,98075.61
2023-04-07T02:17:59.454Z,98075.67
2023-04-07T02:21:04.321Z,98075.72
2023-04-07T02:24:07.745Z,98077.41
2023-04-07T02:27:10.838Z,98075.98
2023-04-07T02:30:14.284Z,98076.98
2023-04-07T02:33:17.272Z,98076.60
2023-04-07T02:36:20.375Z,98079.84
2023-04-07T02:39:23.404Z,98087.91
2023-04-07T02:42:26.906Z,98083.34
2023-04-07T02:45:31.873Z,98080.27
2023-04-07T02:48:34.847Z,98082.25
2023-04-07T02:51:38.990Z,98075.62
2023-04-07T02:54:42.061Z,98074.34
2023-04-07T02:57:45.679Z,98069.92
2023-04-07T03:00:56.993Z,98066.59
2023-04-07T03:04:04.010Z,98061.48
2023-04-07T03:07:07.237Z,98059.38
2023-04-07T03:10:11.177Z,98062.15
2023-04-07T03:13:16.577Z,98069.98
2023-04-07T03:16:19.829Z,98067.33
2023-04-07T03:19:33.927Z,98073.13
2023-04-07T03:22:36.987Z,98068.79
2023-04-07T03:25:42.960Z,98068.32
2023-04-07T03:28:46.474Z,98069.05
2023-04-07T03:31:50.337Z,98066.79
2023-04-07T03:34:54.723Z,98065.31
2023-04-07T03:37:57.772Z,98058.92
2023-04-07T03:41:01.508Z,98055.67
2023-04-07T03:44:04.609Z,98052.64
2023-04-07T03:47:08.264Z,98050.95
2023-04-07T03:50:12.148Z,98048.60
2023-04-07T03:53:24.333Z,98047.64
2023-04-07T03:56:28.980Z,98048.39
2023-04-07T03:59:33.638Z,98054.74
2023-04-07T04:02:39.084Z,98059.17
2023-04-07T04:05:42.621Z,98058.16
2023-04-07T04:08:47.207Z,98053.85
2023-04-07T04:11:51.177Z,98055.31
2023-04-07T04:14:54.362Z,98059.96
2023-04-07T04:17:58.376Z,98065.80
2023-04-07T04:21:02.242Z,98067.39
2023-04-07T04:24:05.887Z,98066.65
2023-04-07T04:27:09.376Z,98066.91
2023-04-07T04:30:13.066Z,98070.40
2023-04-07T04:33:21.832Z,98067.33
2023-04-07T04:36:32.376Z,98069.00
2023-04-07T04:39:39.292Z,98064.19
2023-04-07T04:42:42.562Z,98066.27
2023-04-07T04:45:47.395Z,98067.50
2023-04-07T04:48:52.728Z,98068.67
2023-04-07T04:51:56.394Z,98071.27
2023-04-07T04:54:59.563Z,98066.70
2023-04-07T04:58:03.010Z,98072.42
2023-04-07T05:01:14.058Z,98071.95
2023-04-07T05:04:22.006Z,98072.44
2023-04-07T05:07:32.230Z,98072.97
2023-04-07T05:10:39.978Z,98071.66
2023-04-07T05:13:45.134Z,98072.16
2023-04-07T05:16:48.520Z,98072.39
2023-04-07T05:19:57.419Z,98073.82
2023-04-07T05:23:09.196Z,98071.79
2023-04-07T05:26:12.734Z,98072.49
2023-04-07T05:29:16.441Z,98070.89
2023-04-07T05:32:19.548Z,98069.50
2023-04-07T05:35:22.673Z,98066.88
2023-04-07T05:38:29.838Z,98069.77
2023-04-07T05:41:34.981Z,98074.83
2023-04-07T05:44:38.482Z,98075.91
2023-04-07T05:47:41.611Z,98076.87
2023-04-07T05:50:45.047Z,98079.84
2023-04-07T05:53:51.598Z,98077.64
2023-04-07T05:56:56.564Z,98078.17
2023-04-07T06:00:00.563Z,98077.67
2023-04-07T06:03:03.983Z,98069.86
2023-04-07T06:06:11.768Z,98065.85
2023-04-07T06:09:14.860Z,98065.38
2023-04-07T06:12:18.153Z,98066.64
2023-04-07T06:15:21.245Z,98071.39
2023-04-07T06:18:24.773Z,98073.34
2023-04-07T06:21:27.943Z,98071.34
2023-04-07T06:24:30.941Z,98077.75
2023-04-07T06:27:33.939Z,98079.95
2023-04-07T06:30:36.998Z,98081.46
2023-04-07T06:33:40.530Z,98080.98
2023-04-07T06:36:43.594Z,98076.19
2023-04-07T06:39:46.760Z,98069.93
2023-04-07T06:42:49.713Z,98069.02
2023-04-07T06:45:59.266Z,98075.45
2023-04-07T06:49:02.538Z,98073.38
2023-04-07T06:52:06.337Z,98073.95
2023-04-07T06:55:09.723Z,98075.52
2023-04-07T06:58:12.775Z,98073.84
2023-04-07T07:01:16.052Z,98072.06
2023-04-07T07:04:19.190Z,98074.11
2023-04-07T07:07:22.546Z,98076.13
2023-04-07T07:10:25.797Z,98078.36
2023-04-07T07:13:28.931Z,98071.71
2023-04-07T07:16:31.994Z,98070.18
2023-04-07T07:19:35.478Z,98067.89
2023-04-07T07:22:38.493Z,98072.19
2023-04-07T07:25:41.690Z,98075.92
2023-04-07T07:28:44.619Z,98074.21
2023-04-07T07:31:47.749Z,98072.85
2023-04-07T07:34:50.905Z,98081.23
2023-04-07T07:37:53.906Z,98081.88
2023-04-07T07:40:56.880Z,98090.16
2023-04-07T07:43:59.853Z,98093.01
2023-04-07T07:47:02.932Z,98094.90
2023-04-07T07:50:07.029Z,98096.77
2023-04-07T07:53:10.852Z,98095.09
2023-04-07T07:56:14.770Z,98098.32
2023-04-07T07:59:17.986Z,98107.37
2023-04-07T08:02:21.371Z,98112.29
2023-04-07T08:05:24.692Z,98109.46
2023-04-07T08:08:27.821Z,98112.58
2023-04-07T08:11:30.921Z,98119.42
2023-04-07T08:14:34.111Z,98111.88
2023-04-07T08:17:37.979Z,98117.09
2023-04-07T08:20:41.136Z,98113.42
2023-04-07T08:23:44.538Z,98105.60
2023-04-07T08:26:48.152Z,98101.00
2023-04-07T08:30:06.424Z,98103.34
2023-04-07T08:33:09.567Z,98091.80
2023-04-07T08:36:12.939Z,98084.91
2023-04-07T08:39:15.970Z,98083.22
2023-04-07T08:42:21.799Z,98085.34
2023-04-07T08:45:26.494Z,98091.95
2023-04-07T08:48:34.344Z,98091.27
2023-04-07T08:51:39.634Z,98095.20
2023-04-07T08:54:43.195Z,98104.64
2023-04-07T08:57:46.885Z,98094.90
2023-04-07T09:00:51.706Z,98099.45
2023-04-07T09:03:57.429Z,98094.40
2023-04-07T09:07:02.131Z,98089.17
2023-04-07T09:10:05.890Z,98092.23
2023-04-07T09:13:09.043Z,98094.92
2023-04-07T09:16:14.128Z,98093.27
2023-04-07T09:19:17.207Z,98091.88
2023-04-07T09:22:50.436Z,98088.21
2023-04-07T09:25:53.491Z,98089.15
2023-04-07T09:29:01.442Z,98093.89
2023-04-07T09:32:04.883Z,98097.96
2023-04-07T09:35:08.483Z,98091.27
2023-04-07T09:38:11.450Z,98086.37
2023-04-07T09:41:19.861Z,98087.77
2023-04-07T09:44:23.483Z,98087.86
2023-04-07T09:47:30.955Z,98087.39
2023-04-07T09:50:35.321Z,98081.90
2023-04-07T09:53:42.218Z,98075.80
2023-04-07T09:56:45.688Z,98077.50
2023-04-07T09:59:48.919Z,98073.81
2023-04-07T10:02:53.311Z,98068.91
2023-04-07T10:05:56.788Z,98067.61
2023-04-07T10:09:00.117Z,98069.00
2023-04-07T10:12:04.207Z,98066.87
2023-04-07T10:15:08.506Z,98065.40
2023-04-07T10:18:12.809Z,98068.02
2023-04-07T10:21:16.784Z,98070.84
2023-04-07T10:24:47.308Z,98069.65
2023-04-07T10:27:57.145Z,98069.05
2023-04-07T10:31:01.127Z,98068.52
2023-04-07T10:34:06.034Z,98063.84
2023-04-07T10:37:14.222Z,98065.47
2023-04-07T10:40:21.532Z,98067.49
2023-04-07T10:43:40.086Z,98067.67
2023-04-07T10:46:50.232Z,98074.83
2023-04-07T10:50:15.694Z,98076.24
2023-04-07T10:53:18.877Z,98069.98
2023-04-07T10:56:21.895Z,98067.17
2023-04-07T10:59:27.826Z,98070.23
2023-04-07T11:02:32.790Z,98073.29
2023-04-07T11:05:38.808Z,98079.16
2023-04-07T11:08:48.779Z,98078.59
2023-04-07T11:11:53.547Z,98075.60
2023-04-07T11:14:56.686Z,98072.86
2023-04-07T11:18:15.590Z,98072.71
2023-04-07T11:21:19.643Z,98068.33
2023-04-07T11:24:38.077Z,98068.00
2023-04-07T11:27:41.213Z,98067.69
2023-04-07T11:30:52.861Z,98068.11
2023-04-07T11:33:58.930Z,98069.50
2023-04-07T11:37:24.948Z,98061.08
2023-04-07T11:40:38.098Z,98062.76
2023-04-07T11:43:44.306Z,98054.74
2023-04-07T11:47:03.757Z,98061.46
2023-04-07T11:50:07.809Z,98061.63
2023-04-07T11:53:10.874Z,98062.63
2023-04-07T11:56:18.791Z,98059.17
2023-04-07T11:59:26.008Z,98056.73
2023-04-07T12:02:33.877Z,98050.30
2023-04-07T12:05:45.237Z,98054.29
2023-04-07T12:08:48.211Z,98059.63
2023-04-07T12:11:51.221Z,98052.33
2023-04-07T12:14:55.547Z,98050.02
2023-04-07T12:17:58.538Z,98049.95
2023-04-07T12:21:01.933Z,98050.59
2023-04-07T12:24:04.967Z,98044.22
2023-04-07T12:27:08.476Z,98045.58
2023-04-07T12:30:12.910Z,98047.12
2023-04-07T12:33:16.489Z,98052.95
2023-04-07T12:36:19.458Z,98055.35
2023-04-07T12:39:22.700Z,98060.73
2023-04-07T12:42:26.281Z,98066.60
2023-04-07T12:45:31.226Z,98063.13
2023-04-07T12:48:34.368Z,98064.57
2023-04-07T12:51:40.039Z,98060.09
2023-04-07T12:54:44.531Z,98059.55
2023-04-07T12:57:47.561Z,98058.02
2023-04-07T13:00:50.670Z,98054.63
2023-04-07T13:03:54.162Z,98047.40
2023-04-07T13:06:57.541Z,98052.16
2023-04-07T13:10:00.927Z,98055.69
2023-04-07T13:13:03.860Z,98065.17
2023-04-07T13:16:06.988Z,98063.05
2023-04-07T13:19:10.289Z,98062.55
2023-04-07T13:22:18.314Z,98063.95
2023-04-07T13:25:24.929Z,98065.72
2023-04-07T13:28:28.011Z,98073.94
2023-04-07T13:31:30.953Z,98072.86
2023-04-07T13:34:35.339Z,98075.40
2023-04-07T13:37:38.364Z,98074.11
2023-04-07T13:40:41.592Z,98074.60
2023-04-07T13:43:44.556Z,98077.90
2023-04-07T13:46:47.674Z,98078.00
2023-04-07T13:49:52.098Z,98073.27
2023-04-07T13:52:55.134Z,98067.91
2023-04-07T13:55:58.122Z,98069.96
2023-04-07T13:59:01.972Z,98071.62
2023-04-07T14:02:05.165Z,98071.48
2023-04-07T14:05:08.465Z,98071.02
2023-04-07T14:08:11.406Z,98071.59
2023-04-07T14:11:24.331Z,98075.50
2023-04-07T14:14:27.426Z,98074.92
2023-04-07T14:17:30.637Z,98075.98
2023-04-07T14:20:33.724Z,98071.88
2023-04-07T14:23:37.973Z,98073.84
2023-04-07T14:26:41.042Z,98073.64
2023-04-07T14:29:44.051Z,98077.79
2023-04-07T14:32:47.124Z,98078.77
2023-04-07T14:35:50.478Z,98077.31
2023-04-07T14:38:54.263Z,98075.46
2023-04-07T14:41:57.298Z,98074.80
2023-04-07T14:45:00.347Z,98070.30
2023-04-07T14:48:03.440Z,98069.92
2023-04-07T14:51:13.057Z,98066.77
2023-04-07T14:54:16.048Z,98059.88
2023-04-07T14:57:19.136Z,98062.40
2023-04-07T15:00:22.470Z,98062.34
2023-04-07T15:03:25.648Z,98064.70
2023-04-07T15:06:29.002Z,98064.08
2023-04-07T15:09:32.023Z,98062.24
2023-04-07T15:12:34.978Z,98064.45
2023-04-07T15:15:38.142Z,98065.30
2023-04-07T15:18:44.826Z,98067.87
2023-04-07T15:21:47.835Z,98070.52
2023-04-07T15:24:51.026Z,98070.29
2023-04-07T15:27:54.017Z,98067.89
2023-04-07T15:30:57.256Z,98071.31
2023-04-07T15:34:00.270Z,98068.22
2023-04-07T15:37:04.135Z,98070.90
2023-04-07T15:40:07.914Z,98068.96
2023-04-07T15:43:11.459Z,98071.23
2023-04-07T15:46:15.698Z,98069.62
2023-04-07T15:49:23.146Z,98068.30
2023-04-07T15:52:28.796Z,98068.97
2023-04-07T15:55:33.301Z,98070.77
2023-04-07T15:58:36.351Z,98075.69
2023-04-07T16:01:39.607Z,98072.86
2023-04-07T16:04:42.744Z,98074.03
2023-04-07T16:07:46.014Z,98076.99
2023-04-07T16:10:49.015Z,98076.91
2023-04-07T16:13:52.164Z,98077.00
2023-04-07T16:16:59.125Z,98083.36
2023-04-07T16:20:02.409Z,98084.15
2023-04-07T16:23:05.778Z,98089.68
2023-04-07T16:26:08.848Z,98089.08
2023-04-07T16:29:11.865Z,98086.27
2023-04-07T16:32:14.997Z,98084.81
2023-04-07T16:35:18.160Z,98086.69
2023-04-07T16:38:23.263Z,98086.14
2023-04-07T16:41:26.519Z,98087.01
2023-04-07T16:44:30.059Z,98092.22
2023-04-07T16:47:33.329Z,98097.98
2023-04-07T16:50:43.067Z,98100.94
2023-04-07T16:53:46.727Z,98104.84
2023-04-07T16:56:49.985Z,98107.56
2023-04-07T16:59:53.050Z,98112.02
2023-04-07T17:02:56.480Z,98112.87
2023-04-07T17:06:05.377Z,98115.27
2023-04-07T17:09:08.453Z,98117.61
2023-04-07T17:12:11.774Z,98118.33
2023-04-07T17:15:15.345Z,98120.61
2023-04-07T17:18:18.364Z,98119.89
2023-04-07T17:21:21.391Z,98123.95
2023-04-07T17:24:25.682Z,98128.80
2023-04-07T17:27:29.109Z,98127.31
2023-04-07T17:30:32.365Z,98130.04
2023-04-07T17:33:35.549Z,98138.45
2023-04-07T17:36:38.851Z,98138.53
2023-04-07T17:39:42.037Z,98142.13
2023-04-07T17:42:45.818Z,98143.98
2023-04-07T17:45:49.652Z,98140.25
2023-04-07T17:48:54.452Z,98146.16
2023-04-07T17:51:57.363Z,98141.67
2023-04-07T17:55:00.776Z,98145.39
2023-04-07T17:58:03.913Z,98148.07
2023-04-07T18:01:11.039Z,98150.02
2023-04-07T18:04:15.060Z,98150.80
2023-04-07T18:07:18.301Z,98149.94
2023-04-07T18:10:21.818Z,98157.57
2023-04-07T18:13:24.936Z,98166.16
2023-04-07T18:16:28.196Z,98168.32
2023-04-07T18:19:32.980Z,98173.92
2023-04-07T18:22:37.383Z,98177.20
2023-04-07T18:25:40.425Z,98179.14
2023-04-07T18:28:43.534Z,98183.51
2023-04-07T18:31:46.769Z,98183.45
2023-04-07T18:34:50.958Z,98189.90
2023-04-07T18:37:54.001Z,98196.77
2023-04-07T18:40:57.153Z,98200.41
2023-04-07T18:44:00.380Z,98198.48
2023-04-07T18:47:03.856Z,98198.33
2023-04-07T18:50:07.774Z,98199.58
2023-04-07T18:53:11.862Z,98201.06
2023-04-07T18:56:14.996Z,98198.58
2023-04-07T18:59:17.983Z,98197.09
2023-04-07T19:02:21.280Z,98199.67
2023-04-07T19:05:25.685Z,98197.27
2023-04-07T19:08:29.075Z,98202.34
2023-04-07T19:11:32.776Z,98205.45
2023-04-07T19:14:35.871Z,98207.56
2023-04-07T19:17:39.094Z,98207.48
2023-04-07T19:20:42.270Z,98208.05
2023-04-07T19:23:46.793Z,98212.96
2023-04-07T19:26:50.817Z,98213.44
2023-04-07T19:29:53.920Z,98211.66
2023-04-07T19:32:57.073Z,98212.36
2023-04-07T19:36:00.834Z,98208.88
2023-04-07T19:39:05.384Z,98208.55
2023-04-07T19:42:08.659Z,98209.39
2023-04-07T19:45:12.179Z,98206.50
2023-04-07T19:48:19.310Z,98205.79
2023-04-07T19:51:22.495Z,98207.86
2023-04-07T19:54:26.016Z,98213.92
2023-04-07T19:57:31.496Z,98214.38
2023-04-07T20:00:36.330Z,98214.23
2023-04-07T20:03:42.887Z,98215.71
2023-04-07T20:06:45.984Z,98217.36
2023-04-07T20:09:52.947Z,98220.70
2023-04-07T20:12:56.389Z,98218.60
2023-04-07T20:15:59.643Z,98222.83
2023-04-07T20:19:04.376Z,98221.77
2023-04-07T20:22:07.834Z,98224.03
2023-04-07T20:25:10.978Z,98223.95
2023-04-07T20:28:14.097Z,98223.95
2023-04-07T20:31:18.383Z,98226.92
2023-04-07T20:34:22.568Z,98236.51
2023-04-07T20:37:26.605Z,98235.56
2023-04-07T20:40:30.850Z,98234.79
2023-04-07T20:43:33.904Z,98230.58
2023-04-07T20:46:37.163Z,98233.73
2023-04-07T20:49:42.626Z,98231.00
2023-04-07T20:52:45.640Z,98232.95
2023-04-07T20:55:48.679Z,98235.23
2023-04-07T20:58:51.797Z,98238.90
2023-04-07T21:01:55.498Z,98243.35
2023-04-07T21:04:58.754Z,98245.30
2023-04-07T21:08:03.675Z,98243.45
2023-04-07T21:11:06.641Z,98249.17
2023-04-07T21:14:09.713Z,98250.52
2023-04-07T21:17:12.693Z,98246.73
2023-04-07T21:20:15.838Z,98248.87
2023-04-07T21:23:19.434Z,98247.52
2023-04-07T21:26:22.659Z,98251.26
2023-04-07T21:29:29.960Z,98253.02
2023-04-07T21:32:33.354Z,98252.69
2023-04-07T21:35:36.471Z,98251.40
2023-04-07T21:38:39.480Z,98252.46
2023-04-07T21:41:42.496Z,98257.30
2023-04-07T21:44:45.528Z,98253.97
2023-04-07T21:47:48.575Z,98255.48
2023-04-07T21:50:52.238Z,98258.36
2023-04-07T21:53:55.537Z,98258.65
2023-04-07T21:57:00.978Z,98257.77
2023-04-07T22:00:05.170Z,98261.98
2023-04-07T22:03:17.794Z,98260.95
2023-04-07T22:06:21.211Z,98259.95
2023-04-07T22:09:24.554Z,98264.39
2023-04-07T22:12:27.692Z,98267.02
2023-04-07T22:15:30.805Z,98267.15
2023-04-07T22:18:33.947Z,98267.60
2023-04-07T22:21:37.124Z,98270.34
2023-04-07T22:24:40.270Z,98274.71
2023-04-07T22:27:43.373Z,98275.27
2023-04-07T22:30:46.446Z,98273.72
2023-04-07T22:33:49.502Z,98276.41
2023-04-07T22:36:52.815Z,98276.05
2023-04-07T22:39:56.002Z,98282.36
2023-04-07T22:42:59.112Z,98278.98
2023-04-07T22:46:02.220Z,98281.42
2023-04-07T22:49:05.374Z,98283.95
2023-04-07T22:52:08.544Z,98280.39
2023-04-07T22:55:11.617Z,98286.02
2023-04-07T22:58:14.683Z,98287.77
2023-04-07T23:01:17.761Z,98291.64
2023-04-07T23:04:21.493Z,98293.10
2023-04-07T23:07:24.571Z,98295.92
2023-04-07T23:10:27.678Z,98297.92
2023-04-07T23:13:31.019Z,98294.99
2023-04-07T23:16:34.627Z,98299.02
2023-04-07T23:19:37.689Z,98300.48
2023-04-07T23:22:41.164Z,98304.46
2023-04-07T23:25:45.584Z,98308.42
2023-04-07T23:28:49.052Z,98309.35
2023-04-07T23:31:52.942Z,98311.40
2023-04-07T23:34:56.243Z,98314.66
2023-04-07T23:37:59.225Z,98314.40
2023-04-07T23:41:02.313Z,98313.67
2023-04-07T23:44:05.724Z,98310.57
2023-04-07T23:47:08.784Z,98312.82
2023-04-07T23:50:12.026Z,98308.56
2023-04-07T23:53:15.085Z,98308.98
2023-04-07T23:56:18.141Z,98317.37
2023-04-07T23:59:21.236Z,98323.52
